createdAt,value
2018-01-24T00:02:01.271Z,61.90
2018-01-24T00:04:29.428Z,70.57
2018-01-24T00:06:57.607Z,54.57
2018-01-24T00:09:25.485Z,60.93
2018-01-24T00:14:48.306Z,56.00
2018-01-24T00:17:34.255Z,53.23
2018-01-24T00:20:02.118Z,52.70
2018-01-24T00:22:40.837Z,50.13
2018-01-24T00:25:09.313Z,50.73
2018-01-24T00:27:41.074Z,61.40
2018-01-24T00:30:10.799Z,52.03
2018-01-24T00:32:38.764Z,49.27
2018-01-24T00:41:12.403Z,37.10
2018-01-24T00:43:40.258Z,55.57
2018-01-24T00:46:08.112Z,43.73
2018-01-24T00:48:53.158Z,42.33
2018-01-24T00:51:21.120Z,46.87
2018-01-24T00:53:49.031Z,45.57
2018-01-24T00:56:16.885Z,37.93
2018-01-24T01:01:49.802Z,47.00
2018-01-24T01:04:17.637Z,47.87
2018-01-24T01:09:49.860Z,43.37
2018-01-24T01:18:11.347Z,43.30
2018-01-24T01:20:39.625Z,52.13
2018-01-24T01:23:10.597Z,38.23
2018-01-24T01:25:38.456Z,42.77
2018-01-24T01:28:06.349Z,43.27
2018-01-24T01:30:40.776Z,40.10
2018-01-24T01:36:03.728Z,34.27
2018-01-24T01:41:35.981Z,38.23
2018-01-24T01:44:04.617Z,53.20
2018-01-24T01:52:32.088Z,46.47
2018-01-24T01:54:59.981Z,38.30
2018-01-24T01:57:44.981Z,52.07
2018-01-24T02:03:10.513Z,48.13
2018-01-24T02:05:38.649Z,52.57
2018-01-24T02:08:06.580Z,55.67
2018-01-24T02:10:34.410Z,48.37
2018-01-24T02:13:02.276Z,47.13
2018-01-24T02:15:30.122Z,57.67
2018-01-24T02:18:10.725Z,49.10
2018-01-24T02:20:38.953Z,59.00
2018-01-24T02:23:07.021Z,52.40
2018-01-24T02:25:34.897Z,49.23
2018-01-24T02:28:02.768Z,48.87
2018-01-24T02:30:30.669Z,45.70
2018-01-24T02:39:04.407Z,35.77
2018-01-24T02:44:26.684Z,48.80
2018-01-24T02:49:47.041Z,47.17
2018-01-24T02:52:14.933Z,56.83
2018-01-24T02:54:42.805Z,52.13
2018-01-24T03:00:08.536Z,49.67
2018-01-24T03:05:33.374Z,49.87
2018-01-24T03:11:06.669Z,53.87
2018-01-24T03:13:41.084Z,37.93
2018-01-24T03:21:58.546Z,39.67
2018-01-24T03:33:10.266Z,36.13
2018-01-24T03:41:28.368Z,35.20
2018-01-24T03:43:56.653Z,34.77
2018-01-24T03:46:41.729Z,34.67
2018-01-24T03:49:10.175Z,34.57
2018-01-24T03:51:38.132Z,30.43
2018-01-24T03:54:06.017Z,39.60
2018-01-24T03:56:33.908Z,32.23
2018-01-24T04:13:53.334Z,42.10
2018-01-24T04:19:33.121Z,37.67
2018-01-24T04:22:11.050Z,45.60
2018-01-24T04:27:33.902Z,41.13
2018-01-24T04:30:02.490Z,53.97
2018-01-24T04:32:28.800Z,52.43
2018-01-24T04:35:10.537Z,57.97
2018-01-24T04:40:46.637Z,38.73
2018-01-24T04:43:13.504Z,48.73
2018-01-24T04:45:39.621Z,61.77
2018-01-24T04:48:29.512Z,51.43
2018-01-24T04:50:55.603Z,56.83
2018-01-24T04:53:40.285Z,52.70
2018-01-24T04:56:06.474Z,51.40
2018-01-24T05:04:49.170Z,51.27
2018-01-24T05:07:32.242Z,54.00
2018-01-24T05:12:58.254Z,55.73
2018-01-24T05:15:45.735Z,58.10
2018-01-24T05:21:41.363Z,54.90
2018-01-24T05:24:12.173Z,51.73
2018-01-24T05:26:40.481Z,38.97
2018-01-24T05:35:06.309Z,51.27
2018-01-24T05:37:40.493Z,50.77
2018-01-24T05:43:06.677Z,59.80
2018-01-24T05:45:33.129Z,57.90
2018-01-24T05:53:57.881Z,60.67
2018-01-24T05:56:24.006Z,42.40
2018-01-24T06:05:11.196Z,59.07
2018-01-24T06:13:36.133Z,63.73
2018-01-24T06:22:03.171Z,53.17
2018-01-24T06:24:40.657Z,53.80
2018-01-24T06:27:06.822Z,49.47
2018-01-24T06:29:41.120Z,59.40
2018-01-24T06:32:11.326Z,49.57
2018-01-24T06:44:12.867Z,45.73
2018-01-24T06:46:39.114Z,54.90
2018-01-24T06:49:12.300Z,56.93
2018-01-24T06:51:40.761Z,51.50
2018-01-24T06:54:06.829Z,52.03
2018-01-24T06:56:32.978Z,56.47
2018-01-24T06:58:59.099Z,55.67
2018-01-24T07:01:40.852Z,51.83
2018-01-24T07:04:07.015Z,53.83
2018-01-24T07:06:33.111Z,52.77
2018-01-24T07:15:11.086Z,49.30
2018-01-24T07:17:42.075Z,48.50
2018-01-24T07:26:13.187Z,44.23
2018-01-24T09:02:12.562Z,44.90
2018-01-24T09:11:01.291Z,36.73
2018-01-24T09:13:47.977Z,34.80
2018-01-24T09:22:33.347Z,30.13
2018-01-24T09:25:21.303Z,42.90
2018-01-24T09:30:54.400Z,30.13
2018-01-24T09:33:22.271Z,34.93
2018-01-24T09:35:50.112Z,37.30
2018-01-24T09:38:17.973Z,36.70
2018-01-24T09:40:45.820Z,35.50
2018-01-24T09:52:07.201Z,31.30
2018-01-24T10:03:28.402Z,24.20
2018-01-24T10:05:56.321Z,28.53
2018-01-24T10:08:24.135Z,23.77
2018-01-24T10:10:52.410Z,33.37
2018-01-24T10:16:15.693Z,27.93
2018-01-24T10:18:43.673Z,25.63
2018-01-24T10:21:11.524Z,31.67
2018-01-24T10:23:40.225Z,26.60
2018-01-24T10:26:11.042Z,22.67
2018-01-24T10:31:42.940Z,25.13
2018-01-24T10:34:11.513Z,25.80
2018-01-24T10:36:39.492Z,27.40
2018-01-24T10:48:07.275Z,19.07
2018-01-24T10:50:40.806Z,19.07
2018-01-24T11:05:06.206Z,19.87
2018-01-24T11:07:41.194Z,12.80
2018-01-24T11:10:09.443Z,13.13
2018-01-24T11:35:58.838Z,13.93
2018-01-24T11:38:41.030Z,12.90
2018-01-24T11:41:10.648Z,13.73
2018-01-24T11:43:40.940Z,10.77
2018-01-24T11:46:08.873Z,10.77
2018-01-24T11:48:45.519Z,10.43
2018-01-24T11:51:13.497Z,10.97
2018-01-24T11:53:41.332Z,7.90
2018-01-24T11:56:09.318Z,7.80
2018-01-24T12:01:40.738Z,12.50
2018-01-24T12:04:10.972Z,9.17
2018-01-24T12:06:38.861Z,8.20
2018-01-24T12:09:11.572Z,8.10
2018-01-24T12:20:32.650Z,10.40
2018-01-24T12:23:00.516Z,9.87
2018-01-24T12:31:27.073Z,11.40
2018-01-24T12:33:54.921Z,5.00
2018-01-24T12:51:06.300Z,5.03
2018-01-24T12:53:34.184Z,6.33
2018-01-24T12:56:02.021Z,6.07
2018-01-24T13:13:11.424Z,4.13
2018-01-24T13:15:40.548Z,4.30
2018-01-24T13:18:08.556Z,4.20
2018-01-24T13:20:42.578Z,4.53
2018-01-24T13:23:10.464Z,5.30
2018-01-24T13:28:33.304Z,5.70
2018-01-24T13:31:11.957Z,4.23
2018-01-24T13:33:41.165Z,8.50
2018-01-24T13:36:09.069Z,7.13
2018-01-24T13:38:53.905Z,3.70
2018-01-24T13:41:21.750Z,4.43
2018-01-24T13:43:49.593Z,4.53
2018-01-24T13:49:11.321Z,4.57
2018-01-24T13:54:34.305Z,7.07
2018-01-24T13:57:02.400Z,4.00
2018-01-24T14:02:24.960Z,8.00
2018-01-24T14:04:52.841Z,4.23
2018-01-24T14:16:08.508Z,4.10
2018-01-24T14:18:36.722Z,4.93
2018-01-24T14:21:11.457Z,5.80
2018-01-24T14:26:34.434Z,5.13
2018-01-24T14:29:10.470Z,4.50
2018-01-24T14:31:45.452Z,6.07
2018-01-24T14:34:13.347Z,6.57
2018-01-24T14:36:41.245Z,4.00
2018-01-24T14:42:11.077Z,4.13
2018-01-24T14:44:39.284Z,3.17
2018-01-24T14:56:11.573Z,4.30
2018-01-24T15:13:23.530Z,4.83
2018-01-24T15:15:51.374Z,4.17
2018-01-24T15:21:20.059Z,3.83
2018-01-24T15:23:47.904Z,5.10
2018-01-24T15:32:05.005Z,3.77
2018-01-24T15:34:33.138Z,3.30
2018-01-24T15:54:36.439Z,2.97
2018-01-24T15:57:06.007Z,3.40
2018-01-24T15:59:34.861Z,3.90
2018-01-24T16:02:04.918Z,3.27
2018-01-24T16:04:32.825Z,3.50
2018-01-24T16:07:01.034Z,3.00
2018-01-24T16:09:29.017Z,3.60
2018-01-24T16:12:11.865Z,3.80
2018-01-24T16:17:34.473Z,3.13
2018-01-24T16:22:58.854Z,3.73
2018-01-24T16:25:44.598Z,4.27
2018-01-24T16:37:05.880Z,3.60
2018-01-24T16:39:33.778Z,7.80
2018-01-24T16:42:12.972Z,4.30
2018-01-24T16:44:42.018Z,4.10
2018-01-24T16:52:56.332Z,4.67
2018-01-24T16:55:24.380Z,3.50
2018-01-24T16:58:10.058Z,5.03
2018-01-24T17:00:41.620Z,4.60
2018-01-24T17:03:09.559Z,4.40
2018-01-24T17:11:20.833Z,4.67
2018-01-24T17:16:42.510Z,4.83
2018-01-24T17:22:05.424Z,3.77
2018-01-24T17:33:10.848Z,10.57
2018-01-24T17:41:45.365Z,2.93
2018-01-24T17:44:14.716Z,3.43
2018-01-24T17:49:46.188Z,3.80
2018-01-24T17:55:11.529Z,3.60
2018-01-24T18:00:45.197Z,3.67
2018-01-24T18:03:18.105Z,4.23
2018-01-24T18:05:47.802Z,3.73
2018-01-24T18:14:11.562Z,3.00
2018-01-24T18:19:45.949Z,3.33
2018-01-24T18:22:14.561Z,4.37
2018-01-24T18:24:42.614Z,4.00
2018-01-24T18:30:00.239Z,3.87
2018-01-24T18:39:15.768Z,3.70
2018-01-24T18:41:44.785Z,4.43
2018-01-24T18:47:19.360Z,3.53
2018-01-24T18:49:47.305Z,4.57
2018-01-24T18:55:09.582Z,4.30
2018-01-24T19:03:23.522Z,3.43
2018-01-24T19:27:14.564Z,6.77
2018-01-24T19:29:42.533Z,4.20
2018-01-24T19:32:10.376Z,5.90
2018-01-24T19:34:38.200Z,4.87
2018-01-24T19:37:06.056Z,4.90
2018-01-24T19:39:33.880Z,5.47
2018-01-24T19:42:01.716Z,3.23
2018-01-24T19:44:30.656Z,4.40
2018-01-24T19:49:45.210Z,4.13
2018-01-24T19:52:13.041Z,3.90
2018-01-24T20:00:29.539Z,9.70
2018-01-24T20:02:57.388Z,3.37
2018-01-24T20:05:25.226Z,3.23
2018-01-24T20:07:54.140Z,4.50
2018-01-24T20:13:10.270Z,3.47
2018-01-24T20:15:38.096Z,3.57
2018-01-24T20:18:06.397Z,3.70
2018-01-24T20:20:34.464Z,3.60
2018-01-24T20:23:02.727Z,6.13
2018-01-24T20:25:30.670Z,3.57
2018-01-24T20:27:58.539Z,3.37
2018-01-24T20:30:27.937Z,3.67
2018-01-24T20:32:55.909Z,4.80
2018-01-24T20:35:24.753Z,3.40
2018-01-24T20:37:52.681Z,3.70
2018-01-24T20:40:20.528Z,3.57
2018-01-24T20:42:48.585Z,3.67
2018-01-24T20:45:16.599Z,2.83
2018-01-24T20:48:01.810Z,6.07
2018-01-24T20:50:29.627Z,3.30
2018-01-24T20:52:57.455Z,2.70
2018-01-24T20:55:25.280Z,3.73
2018-01-24T20:57:53.180Z,3.50
2018-01-24T21:00:21.198Z,4.70
2018-01-24T21:02:49.041Z,1.57
2018-01-24T21:05:16.886Z,2.93
2018-01-24T21:07:44.716Z,3.03
2018-01-24T21:10:12.560Z,4.77
2018-01-24T21:12:40.397Z,1.90
2018-01-24T21:15:08.303Z,7.60
2018-01-24T21:17:36.148Z,3.13
2018-01-24T21:20:11.247Z,2.70
2018-01-24T21:22:39.075Z,2.13
2018-01-24T21:25:07.233Z,2.93
2018-01-24T21:27:35.268Z,2.97
2018-01-24T21:33:02.180Z,3.70
2018-01-24T21:35:40.616Z,3.00
2018-01-24T21:38:14.907Z,1.80
2018-01-24T21:40:44.279Z,2.73
2018-01-24T21:46:06.829Z,2.30
2018-01-24T21:48:48.133Z,11.97
2018-01-24T21:51:15.959Z,3.30
2018-01-24T21:53:43.781Z,2.00
2018-01-24T21:56:11.650Z,1.77
2018-01-24T21:58:39.460Z,1.40
2018-01-24T22:01:07.437Z,2.00
2018-01-24T22:03:35.609Z,1.87
2018-01-24T22:06:03.683Z,3.33
2018-01-24T22:08:40.601Z,2.77
2018-01-24T22:11:08.520Z,3.83
2018-01-24T22:13:36.332Z,2.10
2018-01-24T22:16:06.426Z,2.60
2018-01-24T22:18:41.493Z,3.00
2018-01-24T22:21:09.395Z,5.63
2018-01-24T22:23:37.245Z,4.37
2018-01-24T22:26:11.953Z,5.60
2018-01-24T22:31:34.357Z,1.97
2018-01-24T22:40:01.282Z,4.40
2018-01-24T22:42:29.135Z,1.80
2018-01-24T22:44:57.001Z,2.03
2018-01-24T22:47:24.844Z,2.60
2018-01-24T22:57:08.430Z,1.50
2018-01-24T22:59:36.475Z,1.93
2018-01-24T23:02:04.301Z,3.10
2018-01-24T23:04:32.124Z,1.30
2018-01-24T23:07:01.184Z,3.03
2018-01-24T23:09:29.229Z,1.60
2018-01-24T23:11:57.062Z,2.23
2018-01-24T23:14:24.881Z,2.03
2018-01-24T23:16:52.723Z,1.00
2018-01-24T23:19:20.553Z,1.27
2018-01-24T23:21:48.382Z,1.60
2018-01-24T23:24:16.200Z,1.33
2018-01-24T23:26:44.050Z,1.60
2018-01-24T23:29:15.709Z,1.33
2018-01-24T23:31:43.535Z,1.20
2018-01-24T23:34:11.376Z,3.00
2018-01-24T23:36:39.260Z,1.33
2018-01-24T23:39:07.168Z,2.67
2018-01-24T23:41:36.536Z,1.30
2018-01-24T23:44:04.424Z,3.03
2018-01-24T23:46:32.285Z,1.63
2018-01-24T23:49:01.025Z,1.93
2018-01-24T23:51:28.876Z,1.87
2018-01-24T23:53:56.732Z,1.63
2018-01-24T23:56:24.592Z,1.93
2018-01-24T23:58:52.428Z,2.30
